Time;durP1;ratioP1;P1;durP2;ratioP2;P2;SDS_P1;SDS_P2;PMS_P1;PMS_P2;Temp;Humidity;BMP_temperature;BMP_pressure;BME280_temperature;BME280_humidity;BME280_pressure;Samples;Min_cycle;Max_cycle;Signal;HPM_P1;HPM_P2
2022/08/26 00:04:45;;;;;;;12.00;8.60;;;;;;;18.49;75.05;99826.73;214397;1277;141982;-67
2022/08/26 00:09:48;;;;;;;11.90;8.90;;;;;;;18.35;74.64;99822.59;215642;1277;141390;-68
2022/08/26 00:14:51;;;;;;;11.90;8.60;;;;;;;18.12;74.76;99817.08;215752;1277;141130;-69
2022/08/26 00:19:55;;;;;;;14.80;7.40;;;;;;;17.95;74.97;99815.48;215634;1277;141255;-68
2022/08/26 00:24:58;;;;;;;16.10;8.00;;;;;;;17.91;75.43;99809.70;215896;1277;142642;-69
2022/08/26 00:30:05;;;;;;;15.00;7.40;;;;;;;17.96;75.62;99807.98;215586;1277;141164;-71
2022/08/26 00:35:10;;;;;;;8.40;6.50;;;;;;;17.97;75.42;99808.78;215854;1277;141847;-68
2022/08/26 00:40:19;;;;;;;6.70;6.10;;;;;;;17.94;75.73;99806.10;215733;1277;142836;-70
2022/08/26 00:45:24;;;;;;;9.30;7.00;;;;;;;17.91;75.35;99806.13;213839;1276;141840;-68
2022/08/26 00:50:33;;;;;;;13.20;7.80;;;;;;;17.73;75.20;99812.17;215057;1277;141570;-67
2022/08/26 00:55:40;;;;;;;10.40;7.00;;;;;;;17.57;75.42;99810.47;213645;1277;142246;-69
2022/08/26 01:00:48;;;;;;;11.90;7.10;;;;;;;17.55;75.85;99812.05;213608;1277;141175;-69
2022/08/26 01:05:59;;;;;;;11.80;6.50;;;;;;;17.47;75.68;99810.25;213162;1277;140944;-68
2022/08/26 01:11:05;;;;;;;13.50;6.90;;;;;;;17.29;75.86;99806.70;213501;1277;141200;-68
2022/08/26 01:16:13;;;;;;;15.00;9.50;;;;;;;17.11;75.94;99806.45;214610;1277;142562;-68
2022/08/26 01:21:27;;;;;;;19.60;9.10;;;;;;;17.01;76.38;99809.35;214680;1277;142567;-68
2022/08/26 01:26:39;;;;;;;9.20;7.50;;;;;;;17.04;76.76;99809.44;215205;1277;142931;-69
2022/08/26 01:31:48;;;;;;;8.80;6.80;;;;;;;17.12;76.86;99802.77;214193;1277;142283;-68
2022/08/26 01:37:04;;;;;;;8.90;6.50;;;;;;;17.07;76.66;99800.92;214119;1276;141629;-68
2022/08/26 01:42:13;;;;;;;11.90;6.20;;;;;;;16.92;76.68;99800.21;214261;1277;140803;-68
2022/08/26 01:47:23;;;;;;;8.80;6.50;;;;;;;16.75;76.99;99797.16;212374;1277;1487273;-67
2022/08/26 01:52:29;;;;;;;14.20;6.50;;;;;;;16.67;77.24;99796.48;213852;1277;141868;-68
2022/08/26 01:57:34;;;;;;;17.00;8.10;;;;;;;16.68;77.44;99798.30;214740;1277;143086;-68
2022/08/26 02:02:47;;;;;;;18.50;7.70;;;;;;;16.68;77.41;99803.04;215092;1277;141073;-68
2022/08/26 02:07:52;;;;;;;13.00;7.60;;;;;;;16.71;77.42;99804.38;214810;1277;142366;-68
2022/08/26 02:12:56;;;;;;;9.60;6.10;;;;;;;16.61;77.21;99800.88;215739;1277;140349;-68
2022/08/26 02:18:03;;;;;;;15.20;6.00;;;;;;;16.62;77.56;99799.09;215675;1275;141122;-69
2022/08/26 02:23:07;;;;;;;24.20;5.90;;;;;;;16.54;77.03;99797.21;215602;1277;143726;-68
2022/08/26 02:28:12;;;;;;;11.80;5.80;;;;;;;16.38;76.88;99794.56;215781;1275;141915;-69
2022/08/26 02:33:16;;;;;;;8.40;4.60;;;;;;;16.26;77.10;99794.41;215726;1276;141987;-68
2022/08/26 02:38:22;;;;;;;6.90;5.50;;;;;;;16.15;77.16;99796.15;215584;1277;142535;-68
2022/08/26 02:43:25;;;;;;;8.60;5.10;;;;;;;16.05;77.50;99793.02;215929;1276;141353;-68
2022/08/26 02:48:38;;;;;;;18.20;8.50;;;;;;;16.02;77.79;99800.55;214383;1277;141718;-67
2022/08/26 02:53:42;;;;;;;30.90;11.80;;;;;;;15.99;78.01;99794.80;214730;1277;142882;-68
2022/08/26 02:58:47;;;;;;;38.50;16.60;;;;;;;15.95;78.07;99796.24;213808;1277;142148;-68
2022/08/26 03:03:53;;;;;;;19.70;8.20;;;;;;;15.92;78.31;99794.52;215005;1277;142687;-68
2022/08/26 03:08:57;;;;;;;11.90;6.40;;;;;;;15.89;78.47;99785.34;213250;1277;143931;-68
2022/08/26 03:14:02;;;;;;;14.40;6.30;;;;;;;15.87;78.62;99789.76;213559;1276;141901;-68
2022/08/26 03:19:09;;;;;;;16.30;7.00;;;;;;;15.88;78.68;99788.52;214267;1276;141659;-67
2022/08/26 03:24:14;;;;;;;;;;;;;;;15.83;78.65;99783.83;213415;1277;141123;-69
2022/08/26 03:34:42;;;;;;;24.90;13.50;;;;;;;15.58;78.86;99780.73;213844;1277;142820;-69
2022/08/26 03:39:49;;;;;;;11.70;6.30;;;;;;;15.48;78.92;99779.08;213378;1277;141990;-68
2022/08/26 03:44:54;;;;;;;30.00;13.90;;;;;;;15.43;79.13;99777.98;213686;1276;142599;-69
2022/08/26 03:49:59;;;;;;;80.90;32.90;;;;;;;15.42;79.54;99772.17;214059;1277;142286;-70
2022/08/26 03:55:07;;;;;;;211.50;86.60;;;;;;;15.41;79.69;99774.60;215162;1276;140764;-70
2022/08/26 04:00:14;;;;;;;125.80;51.80;;;;;;;15.42;79.66;99773.46;215140;1275;142403;-69
2022/08/26 04:05:22;;;;;;;73.10;30.40;;;;;;;15.44;79.82;99776.05;214849;1277;141387;-68
2022/08/26 04:10:26;;;;;;;35.30;16.70;;;;;;;15.52;79.86;99778.55;215003;1277;143090;-68
2022/08/26 04:15:31;;;;;;;27.70;9.60;;;;;;;15.61;79.97;99779.28;215727;1276;141105;-69
2022/08/26 04:20:36;;;;;;;16.20;8.10;;;;;;;15.66;79.91;99776.33;216001;1276;140668;-69
2022/08/26 04:25:39;;;;;;;8.60;6.20;;;;;;;15.71;79.95;99781.17;215930;1276;140540;-69
2022/08/26 04:30:43;;;;;;;7.10;4.80;;;;;;;15.77;80.12;99782.85;214645;1277;142542;-69
2022/08/26 04:35:48;;;;;;;11.40;4.70;;;;;;;15.88;80.11;99781.14;214868;1277;162823;-68
2022/08/26 04:40:54;;;;;;;9.30;4.90;;;;;;;15.98;80.25;99780.11;215562;1277;141787;-68
2022/08/26 04:46:02;;;;;;;8.30;5.40;;;;;;;16.12;80.31;99781.14;214266;1277;141854;-67
2022/08/26 04:51:06;;;;;;;;;;;;;;;16.28;80.37;99775.84;215309;1277;141896;-68
2022/08/26 04:56:13;;;;;;;39.40;14.60;;;;;;;16.41;80.61;99778.04;215296;1277;128193;-69
2022/08/26 05:01:17;;;;;;;32.00;13.80;;;;;;;16.62;80.69;99776.92;214878;1277;141095;-69
2022/08/26 05:06:22;;;;;;;18.00;12.10;;;;;;;16.83;80.73;99772.84;214148;1276;141709;-68
2022/08/26 05:11:30;;;;;;;21.80;10.50;;;;;;;17.08;80.95;99775.91;214937;1277;141147;-68
2022/08/26 05:16:34;;;;;;;6.80;5.80;;;;;;;17.36;81.12;99776.32;214933;1276;140654;-67
2022/08/26 05:21:38;;;;;;;10.60;6.70;;;;;;;17.63;81.12;99781.83;214549;1276;141741;-67
2022/08/26 05:26:42;;;;;;;9.20;6.50;;;;;;;17.91;81.05;99788.65;214262;1276;142162;-67
2022/08/26 05:31:50;;;;;;;7.00;6.30;;;;;;;18.17;80.99;99786.91;214691;1276;141515;-66
2022/08/26 05:36:54;;;;;;;6.30;5.80;;;;;;;18.44;80.91;99788.55;213872;1277;142641;-66
2022/08/26 05:42:02;;;;;;;14.50;5.90;;;;;;;18.71;80.91;99795.75;213515;1276;141128;-66
2022/08/26 05:47:06;;;;;;;12.70;6.20;;;;;;;18.96;80.80;99795.42;213574;1277;141373;-67
2022/08/26 05:52:11;;;;;;;13.70;5.70;;;;;;;19.17;80.71;99796.73;213727;1275;143096;-67
2022/08/26 05:57:16;;;;;;;9.20;5.30;;;;;;;19.37;80.25;99804.52;214605;1277;141864;-68
2022/08/26 06:02:25;;;;;;;13.20;5.30;;;;;;;19.53;79.84;99802.22;213575;1277;141357;-68
2022/08/26 06:13:05;;;;;;;14.10;5.60;;;;;;;19.82;79.04;99794.34;214691;1277;140348;-70
2022/08/26 06:18:18;;;;;;;10.40;5.10;;;;;;;19.96;78.75;99791.94;215327;1278;140741;-69
2022/08/26 06:28:45;;;;;;;5.20;4.70;;;;;;;20.42;77.50;99796.70;215693;1274;144754;-68
2022/08/26 06:33:49;;;;;;;16.60;4.70;;;;;;;20.68;77.03;99793.95;215932;1277;141574;-68
2022/08/26 06:38:59;;;;;;;20.40;6.30;;;;;;;20.94;76.23;99794.58;215726;1277;142111;-68
2022/08/26 06:44:06;;;;;;;9.40;5.10;;;;;;;21.28;75.90;99795.48;215870;1276;140428;-67
2022/08/26 06:49:12;;;;;;;9.90;5.00;;;;;;;21.77;75.16;99791.52;215046;1275;140371;-67
2022/08/26 06:54:20;;;;;;;5.10;4.50;;;;;;;22.58;73.73;99790.98;214908;1277;140287;-66
2022/08/26 06:59:26;;;;;;;6.90;4.70;;;;;;;23.76;71.88;99792.06;215510;1277;140831;-64
2022/08/26 07:04:32;;;;;;;10.10;4.80;;;;;;;24.51;69.96;99795.52;214041;1277;141324;-65
2022/08/26 07:09:38;;;;;;;13.30;5.50;;;;;;;24.82;68.26;99795.85;214566;1276;160135;-67
2022/08/26 07:14:42;;;;;;;15.70;4.90;;;;;;;25.02;67.68;99797.81;213981;1275;139672;-66
2022/08/26 07:19:50;;;;;;;12.80;4.80;;;;;;;25.26;66.46;99797.66;214125;1276;140103;-66
2022/08/26 07:24:55;;;;;;;15.40;5.40;;;;;;;25.96;66.27;99800.99;214384;1277;140323;-68
2022/08/26 07:30:01;;;;;;;13.40;5.30;;;;;;;26.67;65.54;99797.38;213677;1277;140691;-67
2022/08/26 07:35:06;;;;;;;6.30;4.30;;;;;;;27.51;65.52;99795.50;214953;1276;140667;-66
2022/08/26 07:40:10;;;;;;;13.70;4.90;;;;;;;28.23;63.88;99792.70;214642;1276;142014;-67
2022/08/26 07:45:15;;;;;;;14.90;6.00;;;;;;;28.82;62.86;99788.83;214822;1276;140488;-67
2022/08/26 07:50:21;;;;;;;14.20;5.10;;;;;;;29.29;60.67;99794.02;214125;1276;139983;-67
2022/08/26 07:55:46;;;;;;;10.50;4.50;;;;;;;29.70;58.46;99791.08;215094;1276;140386;-67
2022/08/26 08:01:18;;;;;;;6.60;3.70;;;;;;;30.14;57.58;99791.27;214099;1277;140860;-66
2022/08/26 08:06:24;;;;;;;7.70;3.70;;;;;;;30.48;55.66;99795.33;214716;1277;140456;-66
2022/08/26 08:11:31;;;;;;;8.70;3.70;;;;;;;30.49;53.20;99795.04;215714;1276;140049;-66
2022/08/26 08:16:35;;;;;;;8.30;3.90;;;;;;;30.52;52.16;99794.30;215377;1276;140657;-66
2022/08/26 08:21:51;;;;;;;11.50;3.40;;;;;;;30.67;51.21;99793.95;215729;1277;140347;-66
2022/08/26 08:26:58;;;;;;;5.60;3.60;;;;;;;30.68;49.81;99799.32;215362;1277;139575;-69
2022/08/26 08:32:03;;;;;;;6.00;3.70;;;;;;;30.89;49.74;99793.44;215815;1274;140461;-70
2022/08/26 08:37:13;;;;;;;5.90;3.80;;;;;;;30.99;48.91;99793.05;214956;1277;140393;-69
2022/08/26 08:42:42;;;;;;;5.10;2.70;;;;;;;31.12;48.99;99791.29;215753;1276;142004;-69
2022/08/26 08:47:54;;;;;;;8.60;4.20;;;;;;;31.16;47.56;99792.40;215649;1277;141387;-67
2022/08/26 08:53:19;;;;;;;8.80;4.20;;;;;;;31.20;47.03;99792.05;215638;1276;141353;-68
2022/08/26 08:58:52;;;;;;;4.60;3.20;;;;;;;31.21;47.06;99791.66;215179;1277;141061;-67
2022/08/26 09:04:19;;;;;;;4.10;3.70;;;;;;;31.31;46.08;99787.02;215602;1277;140498;-70
2022/08/26 09:09:47;;;;;;;6.40;4.00;;;;;;;31.56;46.30;99784.42;215174;1276;140241;-67
2022/08/26 09:15:01;;;;;;;6.70;3.90;;;;;;;31.63;45.01;99782.71;214777;1277;141722;-67
2022/08/26 09:20:42;;;;;;;3.30;3.10;;;;;;;31.84;45.27;99781.01;215380;1277;140710;-68
2022/08/26 09:25:55;;;;;;;8.00;3.80;;;;;;;31.89;44.22;99783.58;214546;1277;140183;-68
2022/08/26 09:31:30;;;;;;;13.30;4.40;;;;;;;32.03;44.42;99777.60;213648;1276;141007;-68
2022/08/26 09:36:43;;;;;;;8.60;3.80;;;;;;;32.18;43.35;99772.97;214351;1276;141633;-66
2022/08/26 09:42:03;;;;;;;7.20;4.30;;;;;;;31.91;42.13;99772.66;215351;1276;141067;-68
2022/08/26 09:47:10;;;;;;;5.60;3.70;;;;;;;31.94;42.28;99764.59;215206;1276;141070;-68
2022/08/26 09:52:22;;;;;;;10.60;4.10;;;;;;;32.21;42.37;99753.98;214595;1276;139534;-67
2022/08/26 09:57:31;;;;;;;9.70;3.40;;;;;;;32.45;42.66;99752.65;214401;1276;140026;-66
2022/08/26 10:02:39;;;;;;;10.20;3.80;;;;;;;32.63;41.61;99746.02;214386;1277;139928;-67
2022/08/26 10:07:52;;;;;;;11.00;3.40;;;;;;;32.49;40.94;99751.42;213191;1277;140053;-68
2022/08/26 10:13:25;;;;;;;2.60;2.30;;;;;;;32.53;40.92;99748.23;214698;1277;164332;-70
2022/08/26 10:18:36;;;;;;;4.00;3.30;;;;;;;32.57;40.01;99748.65;213514;1277;140933;-69
2022/08/26 10:23:48;;;;;;;3.90;3.10;;;;;;;32.38;38.98;99746.85;214038;1274;141045;-68
2022/08/26 10:29:06;;;;;;;6.80;3.20;;;;;;;32.49;38.81;99742.12;213587;1277;139837;-66
2022/08/26 10:34:11;;;;;;;6.20;3.40;;;;;;;32.59;38.12;99739.29;215381;1274;140993;-68
2022/08/26 10:39:25;;;;;;;3.80;3.20;;;;;;;32.63;37.47;99737.11;214021;1277;142204;-70
2022/08/26 10:44:33;;;;;;;6.80;3.30;;;;;;;32.65;37.54;99729.48;215671;1276;141560;-71
2022/08/26 10:49:43;;;;;;;5.90;2.90;;;;;;;32.65;38.32;99729.25;215743;1277;141127;-71
2022/08/26 10:55:01;;;;;;;9.00;3.70;;;;;;;32.74;38.68;99721.43;215762;1276;140865;-71
2022/08/26 11:05:35;;;;;;;10.40;3.10;;;;;;;32.87;37.76;99715.07;213426;1277;140996;-70
2022/08/26 11:10:41;;;;;;;5.60;3.40;;;;;;;32.90;37.70;99706.56;213257;1276;142393;-70
2022/08/26 11:15:45;;;;;;;6.20;3.30;;;;;;;33.01;37.32;99702.13;215395;1277;142955;-69
2022/08/26 11:20:49;;;;;;;7.60;3.60;;;;;;;33.06;36.81;99699.94;214733;1276;139870;-70
2022/08/26 11:26:09;;;;;;;;;;;;;;;32.84;36.13;99691.70;214117;1277;140044;-69
2022/08/26 11:31:24;;;;;;;;;;;;;;;32.82;36.04;99684.98;213745;1277;127620;-68
2022/08/26 11:36:38;;;;;;;4.30;2.50;;;;;;;32.73;36.25;99677.73;214358;1276;127186;-69
2022/08/26 11:41:43;;;;;;;7.70;2.90;;;;;;;32.79;36.70;99673.13;213229;1277;139568;-70
2022/08/26 11:46:58;;;;;;;3.70;2.70;;;;;;;32.83;36.18;99673.94;214056;1277;140309;-70
2022/08/26 11:52:13;;;;;;;3.10;2.40;;;;;;;32.72;35.40;99673.78;215702;1276;140147;-70
2022/08/26 11:57:20;;;;;;;2.50;2.30;;;;;;;32.62;35.11;99668.20;214522;1277;139303;-71
2022/08/26 12:02:25;;;;;;;3.30;2.80;;;;;;;32.61;35.20;99666.14;213819;1277;139635;-68
2022/08/26 12:07:29;;;;;;;6.40;3.50;;;;;;;32.73;35.15;99659.20;213861;1277;140202;-70
2022/08/26 12:12:41;;;;;;;5.60;2.70;;;;;;;32.72;35.45;99657.94;214758;1277;141351;-69
2022/08/26 12:17:45;;;;;;;4.90;3.40;;;;;;;32.64;35.07;99655.43;214207;1277;140237;-71
2022/08/26 12:22:58;;;;;;;5.30;2.80;;;;;;;32.82;35.38;99646.64;213059;1277;140183;-67
2022/08/26 12:28:04;;;;;;;11.70;3.00;;;;;;;32.99;35.58;99644.38;215861;1274;139692;-69
2022/08/26 12:33:12;;;;;;;6.80;3.40;;;;;;;33.03;34.62;99638.62;214069;1276;140771;-70
2022/08/26 12:38:26;;;;;;;12.90;3.40;;;;;;;33.00;35.09;99635.22;215719;1277;140233;-70
2022/08/26 12:43:42;;;;;;;3.30;2.90;;;;;;;32.99;34.84;99631.29;215732;1277;141130;-71
2022/08/26 12:48:48;;;;;;;7.40;3.50;;;;;;;33.03;34.89;99627.16;215725;1276;140039;-70
2022/08/26 12:53:53;;;;;;;3.40;3.00;;;;;;;32.88;34.12;99619.46;215479;1276;140245;-71
2022/08/26 12:59:17;;;;;;;8.60;3.50;;;;;;;32.50;34.49;99621.27;215218;1277;140200;-68
2022/08/26 13:04:42;;;;;;;6.90;3.50;;;;;;;32.69;35.18;99616.36;213697;1277;139576;-70
2022/08/26 13:09:48;;;;;;;8.00;3.30;;;;;;;32.91;34.19;99605.13;215277;1277;140014;-69
2022/08/26 13:14:53;;;;;;;9.70;3.40;;;;;;;32.88;34.46;99598.09;215702;1277;141199;-73
2022/08/26 13:19:58;;;;;;;11.40;2.70;;;;;;;32.90;34.15;99599.36;215577;1277;139732;-70
2022/08/26 13:25:07;;;;;;;10.00;2.80;;;;;;;32.89;33.58;99595.48;215623;1277;140165;-70
2022/08/26 13:30:12;;;;;;;5.50;3.70;;;;;;;32.71;32.92;99592.39;215194;1277;141604;-67
2022/08/26 13:35:17;;;;;;;6.30;3.20;;;;;;;32.32;33.36;99590.73;215308;1277;140364;-68
2022/08/26 13:40:21;;;;;;;5.70;3.30;;;;;;;32.13;33.93;99582.85;214249;1276;139532;-68
2022/08/26 13:45:26;;;;;;;9.90;2.80;;;;;;;31.98;33.74;99577.31;214898;1277;139745;-67
2022/08/26 13:50:32;;;;;;;5.30;2.50;;;;;;;31.92;33.55;99566.06;211580;1277;4593152;-69
2022/08/26 13:55:37;;;;;;;7.40;3.10;;;;;;;31.80;33.76;99562.90;212913;1277;141595;-67
2022/08/26 14:00:42;;;;;;;6.90;4.00;;;;;;;31.75;34.17;99562.48;215070;1277;140225;-67
2022/08/26 14:05:46;;;;;;;13.00;3.80;;;;;;;31.71;34.13;99556.47;213524;1277;140864;-67
2022/08/26 14:10:50;;;;;;;;;;;;;;;31.72;34.67;99555.45;215851;1277;140318;-70
2022/08/26 14:16:00;;;;;;;11.30;4.50;;;;;;;31.72;34.81;99548.29;214937;1277;126146;-68
2022/08/26 14:21:07;;;;;;;14.10;4.10;;;;;;;31.72;35.01;99544.11;215542;1277;140309;-69
2022/08/26 14:26:13;;;;;;;9.80;3.80;;;;;;;31.77;34.84;99545.41;215432;1277;141099;-68
2022/08/26 14:31:33;;;;;;;10.40;4.50;;;;;;;31.76;34.86;99541.55;215856;1276;140637;-68
2022/08/26 14:36:37;;;;;;;8.50;4.50;;;;;;;31.72;34.84;99545.45;215663;1277;140659;-69
2022/08/26 14:41:53;;;;;;;10.50;3.80;;;;;;;31.62;35.10;99542.02;215863;1277;139702;-68
2022/08/26 14:47:00;;;;;;;7.20;4.30;;;;;;;31.50;35.24;99536.88;215464;1277;140966;-70
2022/08/26 14:52:10;;;;;;;13.40;4.40;;;;;;;31.36;35.44;99528.24;215858;1276;141136;-69
2022/08/26 14:57:15;;;;;;;4.90;3.90;;;;;;;31.24;35.83;99530.48;215363;1277;142085;-69
2022/08/26 15:02:21;;;;;;;;;;;;;;;31.12;36.01;99530.20;215742;1276;141516;-69
2022/08/26 15:07:37;;;;;;;17.00;5.20;;;;;;;30.94;35.95;99522.11;215081;1276;126534;-67
2022/08/26 15:12:42;;;;;;;5.60;4.90;;;;;;;30.83;35.99;99515.55;214212;1277;141330;-68
2022/08/26 15:17:49;;;;;;;11.60;4.90;;;;;;;30.66;36.36;99508.88;215610;1276;140365;-68
2022/08/26 15:22:54;;;;;;;10.60;4.30;;;;;;;30.55;36.66;99501.98;215530;1277;140163;-68
2022/08/26 15:27:58;;;;;;;7.30;5.30;;;;;;;30.49;36.90;99497.10;214136;1277;141020;-68
2022/08/26 15:33:02;;;;;;;10.50;5.50;;;;;;;30.40;37.07;99492.51;213029;1277;151488;-69
2022/08/26 15:38:05;;;;;;;12.20;6.40;;;;;;;30.32;37.34;99491.45;214002;1277;141385;-67
2022/08/26 15:43:10;;;;;;;7.10;5.20;;;;;;;30.24;37.70;99493.71;214426;1277;141784;-68
2022/08/26 15:48:30;;;;;;;6.80;5.50;;;;;;;30.11;38.04;99494.23;213964;1277;142758;-67
2022/08/26 15:53:37;;;;;;;8.20;5.30;;;;;;;29.99;38.28;99491.61;214476;1276;140366;-68
2022/08/26 15:58:42;;;;;;;11.00;5.50;;;;;;;29.79;38.69;99493.73;215212;1276;140388;-68
2022/08/26 16:03:47;;;;;;;8.20;5.90;;;;;;;29.67;39.09;99497.54;214657;1277;140053;-67
2022/08/26 16:08:54;;;;;;;7.20;5.30;;;;;;;29.55;39.29;99497.19;215298;1277;140214;-66
2022/08/26 16:13:58;;;;;;;8.90;5.50;;;;;;;29.42;40.03;99494.30;215764;1276;140053;-65
2022/08/26 16:19:05;;;;;;;14.80;5.50;;;;;;;29.29;40.19;99496.02;213156;1277;141708;-67
2022/08/26 16:24:11;;;;;;;8.60;5.20;;;;;;;29.09;41.05;99488.05;215391;1277;140642;-66
2022/08/26 16:29:16;;;;;;;;;;;;;;;28.91;41.19;99483.09;215247;1277;140613;-66
2022/08/26 16:34:23;;;;;;;8.30;6.00;;;;;;;28.72;42.07;99484.89;216615;1277;126533;-65
2022/08/26 16:39:30;;;;;;;7.80;6.10;;;;;;;28.53;42.30;99477.29;215883;1276;140620;-66
2022/08/26 16:44:45;;;;;;;8.40;5.30;;;;;;;28.33;43.07;99475.95;215786;1276;140189;-67
2022/08/26 16:49:51;;;;;;;4.90;4.40;;;;;;;28.15;44.02;99477.09;215695;1277;139823;-67
2022/08/26 16:54:55;;;;;;;7.40;5.30;;;;;;;27.91;44.78;99475.43;215813;1276;140979;-67
2022/08/26 17:00:04;;;;;;;6.10;5.50;;;;;;;27.67;45.35;99476.55;215840;1276;140491;-67
2022/08/26 17:05:11;;;;;;;8.10;5.50;;;;;;;27.47;45.77;99474.29;214976;1277;140640;-67
2022/08/26 17:10:18;;;;;;;9.70;6.00;;;;;;;27.24;46.54;99478.55;213922;1277;139710;-67
2022/08/26 17:15:25;;;;;;;8.00;5.60;;;;;;;26.97;47.37;99474.48;215433;1276;141009;-66
2022/08/26 17:20:29;;;;;;;10.80;6.70;;;;;;;26.69;47.99;99477.91;214575;1277;139804;-66
2022/08/26 17:25:32;;;;;;;11.40;5.60;;;;;;;26.44;48.38;99479.40;214862;1277;139651;-66
2022/08/26 17:30:36;;;;;;;11.90;6.00;;;;;;;26.21;48.93;99481.98;214879;1277;140090;-67
2022/08/26 17:35:44;;;;;;;19.80;6.90;;;;;;;25.98;49.51;99482.91;213835;1277;140915;-66
2022/08/26 17:40:50;;;;;;;15.80;7.20;;;;;;;25.72;50.15;99484.28;214692;1277;140043;-66
2022/08/26 17:45:59;;;;;;;11.20;7.10;;;;;;;25.48;50.79;99481.20;213184;1277;139900;-65
2022/08/26 17:51:14;;;;;;;17.80;8.10;;;;;;;25.23;51.44;99483.80;215286;1277;140958;-65
2022/08/26 17:56:22;;;;;;;10.50;8.10;;;;;;;24.96;52.24;99489.71;213727;1277;140107;-65
2022/08/26 18:01:27;;;;;;;8.60;7.00;;;;;;;24.70;52.52;99491.02;214122;1277;141631;-66
2022/08/26 18:06:31;;;;;;;8.10;7.30;;;;;;;24.45;52.93;99490.88;214885;1277;140489;-66
2022/08/26 18:11:34;;;;;;;15.30;8.40;;;;;;;24.22;53.97;99486.71;213908;1277;142433;-66
2022/08/26 18:16:40;;;;;;;22.10;8.80;;;;;;;24.00;54.55;99487.68;215696;1277;140541;-68
2022/08/26 18:21:44;;;;;;;13.60;8.70;;;;;;;23.77;55.47;99488.27;215973;1277;141665;-67
2022/08/26 18:26:49;;;;;;;9.80;7.00;;;;;;;23.57;56.25;99488.58;215303;1277;141755;-66
2022/08/26 18:31:55;;;;;;;10.20;7.30;;;;;;;23.40;56.63;99486.37;215634;1277;142038;-66
2022/08/26 18:37:02;;;;;;;9.80;7.20;;;;;;;23.24;57.28;99487.10;215888;1276;141010;-67
2022/08/26 18:42:22;;;;;;;13.70;7.90;;;;;;;23.07;57.69;99481.42;213369;1277;143278;-67
2022/08/26 18:47:26;;;;;;;8.60;7.50;;;;;;;22.89;58.08;99478.32;215954;1276;141306;-67
2022/08/26 18:52:31;;;;;;;8.40;6.50;;;;;;;22.70;58.33;99483.73;215965;1277;141296;-67
2022/08/26 18:57:35;;;;;;;18.20;6.60;;;;;;;22.57;58.75;99475.23;215841;1276;141545;-67
2022/08/26 19:02:42;;;;;;;15.00;8.00;;;;;;;22.47;59.04;99475.29;215804;1276;161963;-66
2022/08/26 19:07:55;;;;;;;15.90;7.70;;;;;;;22.37;59.47;99474.51;215477;1277;141019;-66
2022/08/26 19:12:59;;;;;;;10.50;7.30;;;;;;;22.24;59.59;99473.23;214757;1276;141403;-66
2022/08/26 19:18:06;;;;;;;10.00;7.00;;;;;;;22.10;59.79;99471.27;215090;1277;140107;-66
2022/08/26 19:23:11;;;;;;;15.00;7.60;;;;;;;21.93;60.18;99472.35;213994;1277;140356;-66
2022/08/26 19:28:36;;;;;;;9.10;7.00;;;;;;;21.75;60.35;99470.29;213967;1277;141240;-67
2022/08/26 19:33:44;;;;;;;15.40;8.00;;;;;;;21.64;60.76;99469.60;214200;1277;141266;-67
2022/08/26 19:38:48;;;;;;;11.20;8.80;;;;;;;21.52;61.31;99474.59;213435;1276;143296;-68
2022/08/26 19:43:53;;;;;;;15.10;8.50;;;;;;;21.41;61.70;99478.05;214770;1276;141167;-66
2022/08/26 19:49:02;;;;;;;16.80;8.70;;;;;;;21.28;61.94;99483.70;215707;1276;140864;-68
2022/08/26 19:54:05;;;;;;;11.10;8.10;;;;;;;21.21;62.19;99486.05;214359;1275;141147;-67
2022/08/26 19:59:10;;;;;;;10.50;8.50;;;;;;;21.15;62.57;99489.69;214774;1277;141568;-67
2022/08/26 20:04:15;;;;;;;9.20;8.20;;;;;;;21.04;62.79;99497.58;215314;1277;140929;-68
2022/08/26 20:09:20;;;;;;;14.20;8.30;;;;;;;20.84;63.14;99502.34;214579;1274;139803;-67
2022/08/26 20:14:27;;;;;;;13.50;9.40;;;;;;;20.56;63.54;99509.20;215140;1276;141206;-66
2022/08/26 20:24:55;;;;;;;15.50;8.20;;;;;;;20.14;64.39;99515.18;215770;1276;140914;-67
2022/08/26 20:30:01;;;;;;;16.50;9.80;;;;;;;19.98;64.84;99518.70;215901;1276;141603;-68
2022/08/26 20:35:10;;;;;;;22.90;10.00;;;;;;;19.90;65.45;99520.09;215853;1277;142428;-68
2022/08/26 20:40:18;;;;;;;12.60;10.40;;;;;;;19.94;65.71;99520.23;215082;1276;141983;-68
2022/08/26 20:45:22;;;;;;;16.80;10.20;;;;;;;20.00;65.93;99522.77;215572;1277;142676;-68
2022/08/26 20:50:27;;;;;;;14.30;10.30;;;;;;;20.04;66.09;99527.50;215644;1276;141944;-65
2022/08/26 20:55:32;;;;;;;11.00;10.00;;;;;;;20.05;66.10;99527.66;215690;1276;141791;-67
2022/08/26 21:00:37;;;;;;;10.80;9.60;;;;;;;20.03;66.12;99530.95;215103;1276;152451;-66
2022/08/26 21:05:41;;;;;;;12.50;9.70;;;;;;;20.00;66.30;99534.45;215776;1277;141988;-66
2022/08/26 21:10:45;;;;;;;11.40;9.20;;;;;;;19.99;66.54;99533.77;214433;1276;140996;-66
2022/08/26 21:15:49;;;;;;;10.30;9.30;;;;;;;19.94;66.76;99533.17;214754;1277;143457;-68
2022/08/26 21:20:52;;;;;;;14.00;9.80;;;;;;;19.85;66.75;99536.77;214566;1277;141312;-67
2022/08/26 21:26:01;;;;;;;9.10;8.10;;;;;;;19.77;66.90;99532.70;213937;1277;141304;-70
2022/08/26 21:31:08;;;;;;;10.70;9.40;;;;;;;19.73;67.24;99529.53;214812;1276;142514;-69
2022/08/26 21:36:13;;;;;;;16.00;10.10;;;;;;;19.69;67.42;99528.14;214871;1277;140924;-67
2022/08/26 21:41:23;;;;;;;11.50;9.40;;;;;;;19.65;67.55;99526.91;213850;1277;141334;-67
2022/08/26 21:46:28;;;;;;;16.60;10.20;;;;;;;19.59;67.73;99521.84;213707;1277;141790;-67
2022/08/26 21:51:35;;;;;;;15.40;9.90;;;;;;;19.52;68.03;99524.85;213884;1276;142782;-66
2022/08/26 21:56:45;;;;;;;13.90;9.60;;;;;;;19.45;68.01;99523.32;213366;1277;142031;-68
2022/08/26 22:01:49;;;;;;;16.10;9.40;;;;;;;19.36;67.99;99513.38;214165;1276;141145;-70
2022/08/26 22:06:56;;;;;;;14.60;10.40;;;;;;;19.30;68.17;99510.65;214700;1277;144985;-67
2022/08/26 22:11:59;;;;;;;17.40;9.60;;;;;;;19.25;68.25;99506.77;213061;1276;143026;-67
2022/08/26 22:17:03;;;;;;;14.00;9.70;;;;;;;19.18;68.32;99503.92;215282;1276;141476;-69
2022/08/26 22:22:07;;;;;;;9.70;8.70;;;;;;;19.08;68.38;99499.70;215895;1276;141763;-68
2022/08/26 22:27:12;;;;;;;20.00;10.30;;;;;;;19.01;68.57;99494.63;215698;1276;140887;-68
2022/08/26 22:32:17;;;;;;;12.00;10.70;;;;;;;18.95;68.66;99491.17;215048;1276;141894;-68
2022/08/26 22:37:21;;;;;;;18.90;10.50;;;;;;;18.88;68.67;99496.97;215872;1274;141623;-67
2022/08/26 22:42:27;;;;;;;13.20;9.30;;;;;;;18.76;68.67;99496.88;215646;1276;141002;-68
2022/08/26 22:47:34;;;;;;;7.90;7.10;;;;;;;18.68;68.94;99498.77;215618;1277;142216;-67
2022/08/26 22:52:40;;;;;;;20.10;9.20;;;;;;;18.63;69.15;99493.80;213462;1277;141223;-68
2022/08/26 22:57:44;;;;;;;13.70;8.20;;;;;;;18.57;69.13;99492.73;215409;1277;140160;-68
2022/08/26 23:02:49;;;;;;;16.30;9.80;;;;;;;18.48;69.19;99489.83;213311;1277;140579;-67
2022/08/26 23:07:53;;;;;;;12.10;8.70;;;;;;;18.39;69.28;99485.58;213501;1277;141096;-67
2022/08/26 23:12:57;;;;;;;9.10;7.90;;;;;;;18.32;69.55;99484.03;215175;1274;140598;-67
2022/08/26 23:18:01;;;;;;;14.60;9.40;;;;;;;18.26;69.71;99486.05;214029;1277;141054;-68
2022/08/26 23:23:06;;;;;;;9.80;8.90;;;;;;;18.17;69.78;99484.50;213612;1277;140030;-68
2022/08/26 23:28:11;;;;;;;15.30;8.60;;;;;;;18.01;69.76;99480.73;214695;1276;140754;-68
2022/08/26 23:33:15;;;;;;;18.80;8.80;;;;;;;17.90;69.99;99480.90;214594;1276;141817;-68
2022/08/26 23:38:19;;;;;;;11.60;9.10;;;;;;;17.85;70.19;99474.88;214398;1276;142383;-67
2022/08/26 23:43:25;;;;;;;10.90;9.10;;;;;;;17.84;70.61;99466.48;213339;1276;140146;-68
2022/08/26 23:48:29;;;;;;;11.00;9.10;;;;;;;17.80;70.56;99462.69;214949;1275;140362;-68
2022/08/26 23:53:33;;;;;;;10.50;9.50;;;;;;;17.73;70.56;99459.55;213194;1276;142144;-69
2022/08/26 23:58:37;;;;;;;13.70;9.80;;;;;;;17.69;70.84;99446.52;213876;1277;140639;-68
